Latest Coastal Weather Observations for Point Fawcett

IDD60701

Issued at 1:11 pm CST Sunday 25 September 2016 (issued every 10 minutes, with the page automatically refreshed every 10 minutes)

About coastal observations | Map of coastal stations | Coastal observations for NT | Marine services | Other Formats
Station Details ID: 200731 Name: POINT FAWCETT Lat: -11.76 Lon: 130.03 Height: 6.5 m
Data from the previous 72 hours. | See also: Recent months at Point Fawcett
Date/Time
CST
Temp
°C
Wind Pressure Rain since
9am
mm
Weather Cloud Vis
km
Sea
Height
m
Swell
Dir  Spd
kts
Gust
kts
hPa Trend Height
m
Period
s
Dir
25/01:00pm 32.1 W 7 9 1009.2 - 0.0 - - - - - - -
25/12:30pm 32.2 W 7 10 1009.4 - 0.0 - - - - - - -
25/12:00pm 31.3 W 7 9 1009.9 - 0.0 - - - - - - -
25/11:30am 31.2 W 5 7 1010.5 - 0.0 - - - - - - -
25/11:00am 31.2 WNW 5 6 1010.8 - 0.0 - - - - - - -
25/10:30am 30.7 WNW 5 6 1010.8 - 0.0 - - - - - - -
25/10:00am 30.2 WNW 4 5 1010.9 - 0.0 - - - - - - -
25/09:30am 30.0 WNW 4 5 1010.7 - 0.0 - - - - - - -
25/09:00am 29.6 W 2 4 1010.3 - 0.0 - - - - - - -
25/08:30am 29.0 WSW 2 4 1010.1 - 0.0 - - - - - - -
25/08:00am 28.4 WSW 3 5 1009.7 - 0.0 - - - - - - -
25/07:30am 26.7 W 3 4 1009.2 - 0.0 - - - - - - -
25/07:00am 25.6 W 5 7 1008.6 - 0.0 - - - - - - -
25/06:30am 25.7 W 4 6 1008.2 - 0.0 - - - - - - -
25/06:00am 26.0 W 6 7 1007.8 - 0.0 - - - - - - -
25/05:30am 24.5 W 4 6 1007.7 - 0.0 - - - - - - -
25/05:00am 24.3 W 5 7 1007.6 - 0.0 - - - - - - -
25/04:30am 23.7 SW 4 6 1007.6 - 0.0 - - - - - - -
25/04:00am 23.5 CALM 0 0 1008.0 - 0.0 - - - - - - -
25/03:30am 23.8 CALM 0 0 1008.1 - 0.0 - - - - - - -
25/03:00am 23.5 CALM 0 0 1008.1 - 0.0 - - - - - - -
25/02:30am 23.6 SW 2 4 1008.3 - 0.0 - - - - - - -
25/02:00am 23.7 SSW 3 4 1008.5 - 0.0 - - - - - - -
25/01:30am 23.8 SSW 3 4 1008.8 - 0.0 - - - - - - -
25/01:00am 23.9 W 4 6 1009.1 - 0.0 - - - - - - -
25/12:30am 24.2 WSW 2 5 1009.3 - 0.0 - - - - - - -
25/12:00am 24.2 W 5 7 1009.3 - 0.0 - - - - - - -
 
Date/Time
CST
Temp
°C
Wind Pressure Rain since
9am
mm
Weather Cloud Vis
km
Sea
Height
m
Swell
Dir  Spd
kts
Gust
kts
hPa Trend Height
m
Period
s
Dir
24/11:30pm 24.3 W 3 5 1009.7 - 0.0 - - - - - - -
24/11:00pm 24.5 CALM 0 0 1009.9 - 0.0 - - - - - - -
24/10:30pm 24.7 S 2 3 1009.9 - 0.0 - - - - - - -
24/10:00pm 25.2 SSE 2 3 1009.7 - 0.0 - - - - - - -
24/09:30pm 25.5 CALM 0 0 1009.4 - 0.0 - - - - - - -
24/09:00pm 25.7 CALM 0 0 1008.9 - 0.0 - - - - - - -
24/08:30pm 26.4 S 3 4 1008.7 - 0.0 - - - - - - -
24/08:00pm 28.0 N 4 5 1008.4 - 0.0 - - - - - - -
24/07:30pm 28.4 N 4 7 1008.2 - 0.0 - - - - - - -
24/07:00pm 28.9 NNW 3 5 1008.1 - 0.0 - - - - - - -
24/06:30pm 29.4 WNW 6 8 1007.5 - 0.0 - - - - - - -
24/06:00pm 29.9 WNW 6 8 1007.0 - 0.0 - - - - - - -
24/05:30pm 30.5 W 6 7 1007.2 - 0.0 - - - - - - -
24/05:00pm 31.1 W 7 9 1006.8 - 0.0 - - - - - - -
24/04:30pm 31.9 WSW 6 9 1006.8 - 0.0 - - - - - - -
24/04:00pm 31.8 WSW 6 9 1006.9 - 0.0 - - - - - - -
24/03:30pm 31.3 WSW 6 9 1007.1 - 0.0 - - - - - - -
24/03:00pm 31.4 WSW 7 10 1007.1 - 0.0 - - - - - - -
24/02:30pm 31.4 SW 7 11 1007.5 - 0.0 - - - - - - -
24/02:00pm 30.8 SW 8 13 1008.0 - 0.0 - - - - - - -
24/01:30pm 30.4 WSW 7 9 1008.6 - 0.0 - - - - - - -
24/01:00pm 31.6 SW 7 9 1009.0 - 0.0 - - - - - - -
24/12:30pm 31.6 WSW 7 9 1009.6 - 0.0 - - - - - - -
24/12:00pm 31.3 WSW 5 8 1010.1 - 0.0 - - - - - - -
24/11:30am 31.2 NW 5 7 1010.6 - 0.0 - - - - - - -
24/11:00am 31.4 N 5 7 1011.1 - 0.0 - - - - - - -
24/10:30am 30.8 N 5 7 1011.2 - 0.0 - - - - - - -
24/10:00am 30.6 ENE 5 8 1011.4 - 0.0 - - - - - - -
24/09:30am 30.3 E 6 9 1011.4 - 0.0 - - - - - - -
24/09:00am 29.6 E 5 8 1011.3 - 1.2 - - - - - - -
24/08:30am 28.4 ENE 4 6 1011.1 - 1.2 - - - - - - -
24/08:00am 26.6 E 4 6 1010.8 - 1.2 - - - - - - -
24/07:30am 25.0 ESE 4 5 1010.4 - 1.2 - - - - - - -
24/07:00am 23.6 ESE 4 5 1010.0 - 1.2 - - - - - - -
24/06:30am 23.4 E 4 5 1009.8 - 1.2 - - - - - - -
24/06:00am 23.3 ESE 4 5 1009.2 - 1.2 - - - - - - -
24/05:30am 23.2 ESE 4 5 1009.0 - 1.2 - - - - - - -
24/05:00am 23.5 SSE 3 4 1008.9 - 1.2 - - - - - - -
24/04:30am 23.6 CALM 0 0 1008.6 - 1.2 - - - - - - -
24/04:00am 23.8 CALM 0 0 1008.6 - 1.2 - - - - - - -
24/03:30am 24.1 CALM 0 0 1008.6 - 1.2 - - - - - - -
24/03:00am 24.5 CALM 0 0 1008.6 - 1.2 - - - - - - -
24/02:30am 24.8 CALM 0 0 1008.9 - 1.2 - - - - - - -
24/02:00am 25.1 S 1 3 1009.2 - 1.2 - - - - - - -
24/01:30am 25.4 CALM 0 3 1009.4 - 1.2 - - - - - - -
24/01:00am 27.0 WNW 5 7 1009.6 - 1.2 - - - - - - -
24/12:30am 27.5 NW 6 7 1009.9 - 1.2 - - - - - - -
24/12:00am 27.5 NNW 5 7 1009.8 - 1.2 - - - - - - -
 
Date/Time
CST
Temp
°C
Wind Pressure Rain since
9am
mm
Weather Cloud Vis
km
Sea
Height
m
Swell
Dir  Spd
kts
Gust
kts
hPa Trend Height
m
Period
s
Dir
23/11:30pm 27.5 N 5 7 1010.1 - 1.2 - - - - - - -
23/11:00pm 27.5 N 6 8 1010.2 - 1.2 - - - - - - -
23/10:30pm 27.4 NNW 5 7 1010.1 - 1.2 - - - - - - -
23/10:00pm 27.6 NNW 6 8 1009.9 - 1.2 - - - - - - -
23/09:30pm 27.2 NW 6 7 1009.5 - 1.2 - - - - - - -
23/09:00pm 26.2 WNW 4 6 1009.4 - 1.2 - - - - - - -
23/08:30pm 27.2 NNW 4 5 1009.3 - 1.2 - - - - - - -
23/08:00pm 27.4 NNW 6 7 1009.0 - 1.2 - - - - - - -
23/07:30pm 27.3 NNW 6 7 1008.8 - 1.2 - - - - - - -
23/07:00pm 27.7 NNW 8 11 1008.6 - 1.2 - - - - - - -
23/06:30pm 28.8 WSW 2 6 1008.1 - 1.2 - - - - - - -
23/06:00pm 29.1 SE 1 3 1007.7 - 1.2 - - - - - - -
23/05:30pm 27.7 E 3 5 1007.9 - 1.2 - - - - - - -
23/05:00pm 27.7 S 4 5 1007.8 - 1.2 - - - - - - -
23/04:30pm 30.0 SW 6 8 1007.7 - 0.0 - - - - - - -
23/04:00pm 31.1 WSW 6 9 1007.6 - 0.0 - - - - - - -
23/03:30pm 31.4 SW 7 11 1007.6 - 0.0 - - - - - - -
23/03:00pm 31.5 SW 7 11 1007.7 - 0.0 - - - - - - -
23/02:30pm 31.5 WSW 5 8 1008.2 - 0.0 - - - - - - -
23/02:00pm 31.4 WSW 6 10 1008.5 - 0.0 - - - - - - -
23/01:30pm 31.6 WSW 6 8 1009.0 - 0.0 - - - - - - -
23/01:00pm 31.0 W 5 7 1009.8 - 0.0 - - - - - - -
23/12:30pm 29.9 SW 4 6 1010.3 - 0.0 - - - - - - -
23/12:00pm 29.6 WSW 6 9 1010.8 - 0.0 - - - - - - -
23/11:30am 30.0 WNW 7 9 1011.3 - 0.0 - - - - - - -
23/11:00am 31.0 NNW 5 6 1011.7 - 0.0 - - - - - - -
23/10:30am 30.9 N 5 7 1012.0 - 0.0 - - - - - - -
23/10:00am 30.9 ENE 5 7 1012.3 - 0.0 - - - - - - -
23/09:30am 29.9 NNE 5 8 1012.2 - 0.0 - - - - - - -
23/09:00am 29.0 NE 5 8 1012.0 - 7.0 - - - - - - -
23/08:30am 28.4 ENE 5 8 1011.8 - 7.0 - - - - - - -
23/08:00am 27.2 ENE 5 6 1011.5 - 7.0 - - - - - - -
23/07:30am 25.6 ENE 4 5 1011.2 - 7.0 - - - - - - -
23/07:00am 24.2 ENE 4 6 1011.0 - 7.0 - - - - - - -
23/06:30am 23.3 E 4 5 1010.7 - 7.0 - - - - - - -
23/06:00am 23.7 E 4 5 1010.1 - 7.0 - - - - - - -
23/05:30am 23.5 E 4 5 1009.9 - 7.0 - - - - - - -
23/05:00am 23.9 E 4 6 1009.6 - 7.0 - - - - - - -
23/04:30am 23.9 E 4 5 1009.6 - 7.0 - - - - - - -
23/04:00am 23.8 ESE 4 5 1009.5 - 7.0 - - - - - - -
23/03:30am 23.8 ESE 4 5 1009.4 - 7.0 - - - - - - -
23/03:00am 24.0 ESE 4 5 1009.6 - 7.0 - - - - - - -
23/02:30am 24.0 ESE 4 4 1009.7 - 7.0 - - - - - - -
23/02:00am 24.2 SE 4 4 1010.1 - 7.0 - - - - - - -
23/01:30am 24.5 SE 4 4 1010.5 - 7.0 - - - - - - -
23/01:00am 24.8 E 3 4 1010.8 - 7.0 - - - - - - -
23/12:30am 25.1 ENE 4 5 1010.9 - 7.0 - - - - - - -
23/12:00am 25.4 E 3 4 1011.0 - 7.0 - - - - - - -
 
Date/Time
CST
Temp
°C
Wind Pressure Rain since
9am
mm
Weather Cloud Vis
km
Sea
Height
m
Swell
Dir  Spd
kts
Gust
kts
hPa Trend Height
m
Period
s
Dir
22/11:30pm 25.8 CALM 0 0 1011.1 - 7.0 - - - - - - -
22/11:00pm 27.8 WNW 6 7 1011.2 - 7.0 - - - - - - -
22/10:30pm 28.0 NW 6 7 1011.3 - 7.0 - - - - - - -
22/10:00pm 28.0 NNW 5 6 1011.1 - 7.0 - - - - - - -
22/09:30pm 28.1 N 6 8 1011.0 - 7.0 - - - - - - -
22/09:00pm 28.0 N 5 7 1010.8 - 7.0 - - - - - - -
22/08:30pm 28.0 N 5 7 1010.7 - 7.0 - - - - - - -
22/08:00pm 28.0 NW 6 7 1010.5 - 7.0 - - - - - - -
22/07:30pm 28.2 NW 6 8 1010.2 - 7.0 - - - - - - -
22/07:00pm 28.4 WNW 6 7 1010.0 - 7.0 - - - - - - -
22/06:30pm 29.2 W 5 6 1009.7 - 7.0 - - - - - - -
22/06:00pm 30.3 SW 5 6 1009.3 - 7.0 - - - - - - -
22/05:30pm 30.6 WSW 5 6 1009.0 - 7.0 - - - - - - -
22/05:00pm 30.6 SW 6 8 1008.9 - 7.0 - - - - - - -
22/04:30pm 30.9 SW 6 9 1009.0 - 7.0 - - - - - - -
22/04:00pm 30.3 WSW 7 10 1009.2 - 7.0 - - - - - - -
22/03:30pm 30.9 SW 5 8 1009.5 - 7.0 - - - - - - -
22/03:00pm 28.9 SE 2 5 1009.6 - 7.0 - - - - - - -
22/02:30pm 27.0 NNW 5 7 1010.0 - 7.0 - - - - - - -
22/02:00pm 26.0 ENE 4 5 1010.3 - 6.6 - - - - - - -
22/01:30pm 27.6 S 5 8 1010.5 - 0.6 - - - - - - -

Other Formats:

Comma delimited format used in spreadsheet applications
http://www.bom.gov.au/fwo/IDD60701/IDD60701.94122.axf

JavaScript Object Notation format (JSON) in row-major order
http://www.bom.gov.au/fwo/IDD60701/IDD60701.94122.json